Flight Track Log - Related Links

Times and Time Zones

All times are in EDT time to prevent confusion due to time zone crossing. See the TAM3131 flight status page for this flight to view local times or setup timezone preferences in your user account.


Time Position Orientation Groundspeed Altitude Reporting Facility
EDT Latitude Longitude Course Direction KTS MPH feet Rate Location/Type
Sat 10:47:37 AM -21.5740 -41.0860 216° Southwest 417 480 29,800  Level FlightAware ADS-B
Sat 10:48:31 AM -21.6590 -41.1540 217° Southwest 423 487 30,500 830 Climbing FlightAware ADS-B
Sat 10:49:11 AM -21.7220 -41.2050 217° Southwest 425 489 31,100 1,037 Climbing FlightAware ADS-B
Sat 10:49:52 AM -21.7860 -41.2570 217° Southwest 419 482 31,900 1,125 Climbing FlightAware ADS-B
Sat 10:50:47 AM -21.8710 -41.3250 217° Southwest 416 479 32,900 1,030 Climbing FlightAware ADS-B
Sat 10:51:31 AM -21.9380 -41.3800 217° Southwest 415 478 33,600 889 Climbing FlightAware ADS-B
Sat 10:52:08 AM -21.9840 -41.4350 228° Southwest 408 470 34,100 698 Climbing FlightAware ADS-B
Sat 10:52:57 AM -22.0400 -41.5130 232° Southwest 411 473 34,600 791 Climbing FlightAware ADS-B
Sat 10:53:39 AM -22.0910 -41.5830 232° Southwest 407 468 35,300 889 Climbing FlightAware ADS-B
Sat 10:54:18 AM -22.1350 -41.6450 233° Southwest 405 466 35,800 553 Climbing FlightAware ADS-B
Sat 10:54:55 AM -22.1790 -41.7050 232° Southwest 405 466 36,000 109 Climbing FlightAware ADS-B
Sat 10:56:08 AM -22.2600 -41.8190 232° Southwest 404 465 36,000  Level FlightAware ADS-B
Sat 10:56:53 AM -22.3130 -41.8930 232° Southwest 402 463 36,000  Level FlightAware ADS-B
Sat 10:57:21 AM -22.3450 -41.9370 232° Southwest 401 461 36,000  Level FlightAware ADS-B
Sat 10:58:03 AM -22.3920 -42.0030 232° Southwest 400 460 36,000  Level FlightAware ADS-B
Sat 10:58:47 AM -22.4420 -42.0730 232° Southwest 398 458 36,000  Level FlightAware ADS-B
Sat 10:59:25 AM -22.4850 -42.1330 232° Southwest 398 458 36,000  Level FlightAware ADS-B
Sat 11:00:11 AM -22.5370 -42.2060 232° Southwest 399 459 36,000  Level FlightAware ADS-B
Sat 11:00:51 AM -22.5820 -42.2690 232° Southwest 400 460 36,000  Level FlightAware ADS-B
Sat 11:01:31 AM -22.6270 -42.3320 232° Southwest 400 460 36,000  Level FlightAware ADS-B
Sat 11:02:19 AM -22.6810 -42.4090 233° Southwest 400 460 36,000  Level FlightAware ADS-B
Sat 11:03:00 AM -22.7270 -42.4730 232° Southwest 401 461 36,000  Level FlightAware ADS-B
Sat 11:03:27 AM -22.7580 -42.5170 233° Southwest 401 461 36,000  Level FlightAware ADS-B
Sat 11:04:09 AM -22.8060 -42.5850 233° Southwest 401 461 36,000  Level FlightAware ADS-B
Sat 11:04:39 AM -22.8390 -42.6320 233° Southwest 401 461 36,000  Level FlightAware ADS-B
Sat 11:05:17 AM -22.8810 -42.6920 233° Southwest 400 460 36,000  Level FlightAware ADS-B
Sat 11:05:59 AM -22.9280 -42.7590 233° Southwest 399 459 36,000  Level FlightAware ADS-B
Sat 11:06:29 AM -22.9630 -42.8080 232° Southwest 399 459 36,000  Level FlightAware ADS-B
Sat 11:07:09 AM -23.0060 -42.8690 233° Southwest 398 458 36,000  Level FlightAware ADS-B
Sat 11:07:53 AM -23.0560 -42.9410 233° Southwest 399 459 36,000  Level FlightAware ADS-B
Sat 11:08:31 AM -23.0980 -43.0010 233° Southwest 399 459 36,000  Level FlightAware ADS-B
Sat 11:09:15 AM -23.1480 -43.0710 232° Southwest 398 458 36,000  Level FlightAware ADS-B
Sat 11:09:57 AM -23.1880 -43.1440 239° Southwest 396 456 36,000  Level FlightAware ADS-B
Sat 11:10:39 AM -23.2160 -43.2220 249° West 396 456 36,000  Level FlightAware ADS-B
Sat 11:12:13 AM -23.2520 -43.4010 258° West 395 455 36,000  Level FlightAware ADS-B
Sat 11:12:59 AM -23.2710 -43.4930 257° West 394 453 36,000  Level FlightAware ADS-B
Sat 11:13:41 AM -23.2870 -43.5740 258° West 393 452 36,000  Level FlightAware ADS-B
Sat 11:14:25 AM -23.3030 -43.6580 258° West 394 453 36,000  Level FlightAware ADS-B
Sat 11:15:33 AM -23.3290 -43.7890 258° West 394 453 36,000  Level FlightAware ADS-B
Sat 11:16:26 AM -23.3490 -43.8910 258° West 394 453 36,000  Level FlightAware ADS-B
Sat 11:17:09 AM -23.3650 -43.9750 258° West 394 453 36,000  Level FlightAware ADS-B
Sat 11:17:55 AM -23.3840 -44.0670 257° West 394 453 36,000  Level FlightAware ADS-B
Sat 11:18:38 AM -23.4020 -44.1500 257° West 394 453 36,000  Level FlightAware ADS-B
Sat 11:19:14 AM -23.4170 -44.2170 256° West 394 453 36,000  Level FlightAware ADS-B
Sat 11:20:00 AM -23.4360 -44.3060 257° West 393 452 36,000  Level FlightAware ADS-B
Sat 11:21:06 AM -23.4630 -44.4340 257° West 392 451 36,000  Level FlightAware ADS-B
Sat 11:21:53 AM -23.4810 -44.5220 257° West 391 450 36,000  Level FlightAware ADS-B
Sat 11:22:33 AM -23.4980 -44.6000 257° West 390 449 36,000  Level FlightAware ADS-B
Sat 11:23:13 AM -23.5140 -44.6740 257° West 391 450 36,000  Level FlightAware ADS-B
Sat 11:23:58 AM -23.5320 -44.7600 257° West 392 451 36,000  Level FlightAware ADS-B
Sat 11:24:38 AM -23.5490 -44.8410 257° West 394 453 36,000 -1,096 Level FlightAware ADS-B
Sat 11:25:53 AM -23.5790 -44.9860 257° West 387 445 33,900 -1,878 Descending FlightAware ADS-B
Sat 11:26:33 AM -23.5950 -45.0610 257° West 384 442 32,400 -2,175 Descending FlightAware ADS-B
Sat 11:27:13 AM -23.6100 -45.1360 258° West 374 430 31,000 -2,113 Descending FlightAware ADS-B
Sat 11:27:44 AM -23.6210 -45.1910 258° West 369 425 29,900 -2,143 Descending FlightAware ADS-B
Sat 11:28:23 AM -23.6360 -45.2610 257° West 364 419 28,500 -2,071 Descending FlightAware ADS-B
Sat 11:29:08 AM -23.6530 -45.3420 257° West 352 405 27,000 -2,025 Descending FlightAware ADS-B
Sat 11:29:43 AM -23.6650 -45.4030 258° West 347 399 25,800 -1,950 Descending FlightAware ADS-B
Sat 11:30:28 AM -23.6810 -45.4790 257° West 341 392 24,400 -1,933 Descending FlightAware ADS-B
Sat 11:31:13 AM -23.6960 -45.5550 258° West 341 392 22,900 -1,976 Descending FlightAware ADS-B
Sat 11:31:53 AM -23.7100 -45.6230 257° West 340 391 21,600 -1,926 Descending FlightAware ADS-B
Sat 11:32:34 AM -23.7240 -45.6900 257° West 337 388 20,300 -2,100 Descending FlightAware ADS-B
Sat 11:33:13 AM -23.7370 -45.7540 257° West 337 388 18,800 -2,429 Descending FlightAware ADS-B
Sat 11:33:58 AM -23.7520 -45.8320 258° West 342 394 16,900 -1,953 Descending FlightAware ADS-B
Sat 11:34:39 AM -23.7650 -45.8940 257° West 327 376 16,000 -1,697 Descending FlightAware ADS-B
Sat 11:35:37 AM -23.7830 -45.9850 258° West 319 367 14,100 -1,851 Descending FlightAware ADS-B
Sat 11:36:13 AM -23.7950 -46.0430 257° West 307 353 13,100 -2,118 Descending FlightAware ADS-B
Sat 11:37:02 AM -23.8090 -46.1110 257° West 290 334 11,100 -2,200 Descending FlightAware ADS-B
Sat 11:37:43 AM -23.8200 -46.1690 258° West 280 322 9,800 -1,698 Descending FlightAware ADS-B
Sat 11:37:55 AM -23.8230 -46.1870 260° West 271 312 9,600 -750 Descending FlightAware ADS-B
Sat 11:38:15 AM -23.8190 -46.2210 277° West 260 299 9,400 -522 Descending FlightAware ADS-B
Sat 11:38:41 AM -23.8130 -46.2530 282° West 254 292 9,200 -625 Descending FlightAware ADS-B
Sat 11:39:03 AM -23.8090 -46.2780 280° West 256 295 8,900 -1,263 Descending FlightAware ADS-B
Sat 11:39:38 AM -23.8020 -46.3190 281° West 257 296 8,000 -1,444 Descending FlightAware ADS-B
Sat 11:39:57 AM -23.7980 -46.3440 280° West 256 295 7,600 -1,224 Descending FlightAware ADS-B
Sat 11:40:27 AM -23.7920 -46.3810 280° West 245 282 7,000 -1,119 Descending FlightAware ADS-B
Sat 11:40:56 AM -23.7860 -46.4160 281° West 231 266 6,500 -846 Descending FlightAware ADS-B
Sat 11:41:45 AM -23.7760 -46.4700 281° West 212 244 5,900 -658 Descending FlightAware ADS-B
Sat 11:42:09 AM -23.7720 -46.4930 281° West 213 245 5,700 -655 Descending FlightAware ADS-B
Sat 11:42:40 AM -23.7660 -46.5280 281° West 218 251 5,300 -575 Descending FlightAware ADS-B
Sat 11:43:22 AM -23.7530 -46.5690 289° West 196 226 5,000 -358 Descending FlightAware ADS-B
Sat 11:43:47 AM -23.7350 -46.5820 327° Northwest 186 214 4,900 -612 Descending FlightAware ADS-B
Sat 11:44:11 AM -23.7180 -46.5930 329° Northwest 173 199 4,500 -964 Descending FlightAware ADS-B
Sat 11:44:43 AM -23.6990 -46.6060 328° Northwest 148 170 4,000 -878 Descending FlightAware ADS-B
Sat 11:44:52 AM -23.6940 -46.6100 324° Northwest 139 160 3,900 -667 Descending FlightAware ADS-B
Sat 11:48:00 AM -23.6267 -46.6554 328° Northwest  Level Estimated
Sat 11:49:00 AM -23.6267 -46.6554 114° Southeast  Level Estimated
Sat 11:49:50 AM -23.6240 -46.6600 114° Southeast 126 145  Level FlightAware ADS-B
Sat 11:50:00 AM -23.6267 -46.6554 114° Southeast  Level Estimated
Sat 11:50:16 AM -23.6240 -46.6610 270° West 126 145  Level FlightAware ADS-B
Sat 11:52:00 AM -23.6267 -46.6554 118° Southeast  Level Estimated
Sat 11:53:00 AM -23.6267 -46.6554 114° Southeast  Level Estimated
Sat 11:54:00 AM -23.6267 -46.6554 114° Southeast  Level Estimated
Sat 11:54:13 AM -23.6230 -46.6470 114° Southeast 126 145  Level FlightAware ADS-B

Login

Don't have an account? Register now (free) for customized features, flight alerts, and more!